Kezdőlap
METAR-TAF:

METAR-TAF

Repülőterek :

Kartúm, Szudán

földrajzi szélesség: 15-36N, földrajzi hosszúság: 032-33E, magasság: 382 m

Jelenlegi meteorológiai megfigyelések

A jelentés 22 perccel ezelõtt készült, 01:30 UTC
Északi szél 14 kt
Hőmérséklet 20°C
Páratartalom 19%
Légköri nyomás 1013 hPa
Látótávolság 10 km, vagy több
felhőtlen 1500 m magasságban, és nincs gomolyfelhõ

METAR: HSSS 230130Z 35014KT CAVOK 20/M04 Q1013 NOSIG

Idő: 04:52 (01:52 UTC)

Előrejelzés

A jelentés 2 órával és 52 perccel ezelõtt készült, 23:00 UTC
Az előrejelzés 23-én 00 óra UTC és 24-én 06 óra UTC között érvényes
Észak-északnyugati szél 12 kt széllökések: 22 kt
23-én 03 óra UTC és 23-én 09 óra UTC között ideiglenes
Látótávolság: 6000 m

TAF: HSSS 222300Z 2300/2406 34012G22KT TEMPO 2303/2309 6000

Meteorológiai megfigyelések és előrejelzések több, mint 4000 repülőtéren (METAR és TAF jelentéseket).

A térképen piros és sárga pontok jelzik az elérhető meteorológiai állomásokat.

Mozgassa az egeret a pont fölött, hogy megjelenjen az állomás neve.

Azután kattintson az időjárási megfigyelések és előrejelzések megtekintéséhez.

A térkép megváltoztatása: kattintson a fekete keresztel jelölt zöld gombra ráközelítéshez, a vonallal jelölt zöld gombra távolításhoz, vagy a zöld nyilakra a szomszédos térképek eléréséhez.


METAR-TAF: